Cabo Espichel — CSZF — position and weather

sailwx.info

Track history (hours):
 
Tides and Currents Weather Stations Pressure Air Temp Water Temp Dewpoint Dewpoint Depression Visibility Wind Speed Wind Dir Waves Ship Positions

Cabo Espichel

Last reported at 2018-Feb-23 07:25 UTC. Time now 2018-Feb-23 10:54 UTC.
Position N 38°28' W 008°48'.

Type: Tug. MMSI: 263601850.

Date/timePositionNaut miles runAvg speedWind from/ knotsBaromVisibWave heightAir tempDewpointWater temp
2018-Feb-23 07:25N 38°28' W 008°48'  
2018-Feb-20 17:54N 38°29' W 008°56'1 2.1
2018-Feb-20 17:19N 38°28' W 008°57'0 0.5
2018-Feb-20 16:59N 38°29' W 008°57'5 0.6
2018-Feb-20 08:10N 38°30' W 008°50'0 0.0
2018-Feb-20 07:58N 38°30' W 008°50'1 2.2
2018-Feb-20 07:19N 38°31' W 008°52'1 2.3
2018-Feb-20 06:55N 38°31' W 008°53'0 0.3
2018-Feb-20 06:26N 38°31' W 008°53'1 3.1
2018-Feb-20 06:00N 38°31' W 008°54'1 2.0
2018-Feb-20 05:25N 38°30' W 008°56'0 0.6
2018-Feb-20 05:00N 38°30' W 008°56'2 3.7
2018-Feb-20 04:30N 38°31' W 008°54'2 3.7
2018-Feb-20 04:00N 38°31' W 008°52'2 0.1
2018-Feb-18 20:43N 38°30' W 008°50'0 0.0
2018-Feb-18 06:52N 38°30' W 008°50'0 0.0
2018-Feb-18 06:07N 38°30' W 008°50'0 0.0
2018-Feb-18 05:55N 38°30' W 008°50'0 0.0
2018-Feb-18 01:22N 38°30' W 008°50'  
2018-Feb-15 16:55N 38°30' W 008°50'2 0.6
2018-Feb-15 13:46N 38°28' W 008°48'2 0.5
2018-Feb-15 09:28N 38°30' W 008°50'0 0.0
2018-Feb-15 05:55N 38°30' W 008°50'  
Track history (hours):
 
Tides and Currents Weather Stations Pressure Air Temp Water Temp Dewpoint Dewpoint Depression Visibility Wind Speed Wind Dir Waves Ship Positions

Cabo Espichel

Last reported at 2018-Feb-23 07:25 UTC. Time now 2018-Feb-23 10:54 UTC.
Position N 38°28' W 008°48'.

Type: Tug. MMSI: 263601850.

Date/timePositionNaut miles runAvg speedWind from/ knotsBaromVisibWave heightAir tempDewpointWater temp
2018-Feb-23 07:25N 38°28' W 008°48'  
2018-Feb-20 17:54N 38°29' W 008°56'1 2.1
2018-Feb-20 17:19N 38°28' W 008°57'0 0.5
2018-Feb-20 16:59N 38°29' W 008°57'5 0.6
2018-Feb-20 08:10N 38°30' W 008°50'0 0.0
2018-Feb-20 07:58N 38°30' W 008°50'1 2.2
2018-Feb-20 07:19N 38°31' W 008°52'1 2.3
2018-Feb-20 06:55N 38°31' W 008°53'0 0.3
2018-Feb-20 06:26N 38°31' W 008°53'1 3.1
2018-Feb-20 06:00N 38°31' W 008°54'1 2.0
2018-Feb-20 05:25N 38°30' W 008°56'0 0.6
2018-Feb-20 05:00N 38°30' W 008°56'2 3.7
2018-Feb-20 04:30N 38°31' W 008°54'2 3.7
2018-Feb-20 04:00N 38°31' W 008°52'2 0.1
2018-Feb-18 20:43N 38°30' W 008°50'0 0.0
2018-Feb-18 06:52N 38°30' W 008°50'0 0.0
2018-Feb-18 06:07N 38°30' W 008°50'0 0.0
2018-Feb-18 05:55N 38°30' W 008°50'0 0.0
2018-Feb-18 01:22N 38°30' W 008°50'  
2018-Feb-15 16:55N 38°30' W 008°50'2 0.6
2018-Feb-15 13:46N 38°28' W 008°48'2 0.5
2018-Feb-15 09:28N 38°30' W 008°50'0 0.0
2018-Feb-15 05:55N 38°30' W 008°50'  

Dump ship's entire track history